Time;durP1;ratioP1;P1;durP2;ratioP2;P2;SDS_P1;SDS_P2;PMS_P1;PMS_P2;Temp;Humidity;BMP_temperature;BMP_pressure;BME280_temperature;BME280_humidity;BME280_pressure;Samples;Min_cycle;Max_cycle;Signal;HPM_P1;HPM_P2
2021/11/20 00:00:00;;;;;;;4.03;2.97;;;4.40;99.90;;;4.06;98.31;98546.97;171069;28;1277;-73
2021/11/20 00:00:16;;;;;;;4.07;2.80;;;4.30;99.90;;;4.10;98.30;98556.41;171119;28;1559;-72
2021/11/20 00:00:29;;;;;;;4.50;2.99;;;4.40;99.90;;;4.12;98.79;98559.81;172169;28;1906;-73
2021/11/20 00:00:40;;;;;;;4.71;2.97;;;4.40;99.90;;;4.15;97.99;98562.22;172186;28;2318;-72
2021/11/20 00:00:49;;;;;;;4.91;2.94;;;4.40;99.90;;;4.06;98.32;98543.44;172839;28;1310;-72
2021/11/20 00:01:00;;;;;;;5.36;2.84;;;4.40;99.90;;;4.09;99.11;98543.22;172882;28;1028;-74
2021/11/20 00:01:14;;;;;;;5.88;3.23;;;4.40;99.90;;;4.15;98.90;98553.38;171729;28;1721;-73
2021/11/20 00:01:27;;;;;;;5.94;3.44;;;4.40;99.90;;;4.13;98.96;98556.19;173158;28;1405;-72
2021/11/20 00:01:36;;;;;;;5.69;3.33;;;4.40;99.90;;;4.12;99.02;98551.81;172494;28;1388;-72
2021/11/20 00:01:42;;;;;;;4.93;2.83;;;4.40;99.90;;;4.11;99.21;98550.13;171162;28;1050;-73
2021/11/20 00:01:48;;;;;;;3.37;2.37;;;4.40;99.90;;;4.13;98.50;98555.34;171975;28;1034;-72
2021/11/20 00:01:57;;;;;;;3.80;2.30;;;4.40;99.90;;;4.16;98.90;98555.94;173152;28;1330;-72
2021/11/20 00:02:03;;;;;;;4.03;2.41;;;4.40;99.90;;;4.14;98.26;98557.03;172518;28;1433;-72
2021/11/20 00:02:15;;;;;;;4.07;2.67;;;4.40;99.90;;;4.18;98.08;98570.00;172851;28;1754;-73
2021/11/20 00:02:30;;;;;;;5.50;3.63;;;4.40;99.90;;;4.16;98.44;98563.94;173009;28;3175;-72
2021/11/20 00:02:36;;;;;;;6.28;4.10;;;4.40;99.90;;;4.14;98.66;98557.88;172578;28;1233;-72
2021/11/20 00:02:43;;;;;;;5.97;3.83;;;4.40;99.90;;;4.15;98.33;98553.38;172539;28;1276;-74
2021/11/20 00:02:50;;;;;;;5.38;3.30;;;4.40;99.90;;;4.17;98.07;98567.44;172518;28;951;-72
2021/11/20 00:02:57;;;;;;;5.68;3.20;;;4.40;99.90;;;4.16;97.88;98566.59;171807;28;1472;-71
2021/11/20 00:03:04;;;;;;;6.50;3.40;;;4.40;99.90;;;4.13;97.85;98561.50;173217;28;1021;-72
2021/11/20 00:03:12;;;;;;;7.12;3.26;;;4.40;99.90;;;4.13;98.20;98561.50;171612;28;1725;-73
2021/11/20 00:03:21;;;;;;;7.93;3.27;;;4.40;99.90;;;4.19;98.11;98568.19;171945;28;862;-72
2021/11/20 00:03:28;;;;;;;7.26;3.09;;;4.40;99.90;;;4.10;98.00;98558.22;172360;28;1030;-73
2021/11/20 00:03:38;;;;;;;5.90;2.90;;;4.40;99.90;;;4.11;98.39;98562.59;172927;28;1163;-72
2021/11/20 00:03:46;;;;;;;5.30;3.13;;;4.40;99.90;;;4.12;98.63;98561.63;172414;28;1266;-71
2021/11/20 00:03:53;;;;;;;4.87;3.18;;;4.40;99.90;;;4.08;98.41;98557.50;171746;28;990;-73
2021/11/20 00:04:00;;;;;;;4.64;3.16;;;4.40;99.90;;;4.08;98.53;98553.03;171745;28;1277;-72
2021/11/20 00:04:06;;;;;;;4.73;3.37;;;4.40;99.90;;;4.11;98.29;98563.44;171813;28;1398;-72
2021/11/20 00:04:13;;;;;;;4.92;3.20;;;4.40;99.90;;;4.17;98.12;98570.09;173106;28;2774;-73
2021/11/20 00:04:20;;;;;;;5.00;3.20;;;4.40;99.90;;;4.11;98.56;98554.59;172328;28;1378;-73
2021/11/20 00:04:26;;;;;;;4.82;3.08;;;4.40;99.90;;;4.11;98.63;98560.78;171752;28;974;-73
2021/11/20 00:04:33;;;;;;;4.63;2.92;;;4.40;99.90;;;4.07;98.64;98554.00;171634;28;1253;-73
2021/11/20 00:04:40;;;;;;;4.77;2.80;;;4.40;99.90;;;4.11;98.41;98552.78;172486;28;1034;-73
2021/11/20 00:04:47;;;;;;;5.36;2.76;;;4.40;99.90;;;4.09;98.44;98552.03;173516;28;1322;-73
2021/11/20 00:04:54;;;;;;;6.10;2.90;;;4.40;99.90;;;4.16;98.21;98561.25;173169;28;1386;-73
2021/11/20 00:05:02;;;;;;;6.34;2.88;;;4.40;99.90;;;4.16;98.71;98555.06;173043;28;1299;-72
2021/11/20 00:05:14;;;;;;;6.26;2.93;;;4.40;99.90;;;4.14;99.30;98549.91;173256;28;2284;-73
2021/11/20 00:05:30;;;;;;;4.71;2.53;;;4.40;99.90;;;4.20;99.02;98564.53;174358;28;1525;-72
2021/11/20 00:05:44;;;;;;;3.95;2.38;;;4.50;99.90;;;4.19;99.16;98555.72;171646;28;1435;-72
2021/11/20 00:05:53;;;;;;;3.99;2.35;;;4.50;99.90;;;4.24;98.39;98563.34;171610;28;1196;-72
2021/11/20 00:06:01;;;;;;;3.60;2.31;;;4.50;99.90;;;4.23;98.80;98561.63;171709;28;1517;-72
2021/11/20 00:06:07;;;;;;;4.30;2.67;;;4.40;99.90;;;4.27;99.16;98563.06;171783;28;1809;-72
2021/11/20 00:06:26;;;;;;;4.83;2.80;;;4.40;99.90;;;4.21;98.71;98553.75;173609;28;1264;-74
2021/11/20 00:06:40;;;;;;;5.21;3.26;;;4.40;99.90;;;4.24;99.08;98563.34;173112;28;1258;-73
2021/11/20 00:06:50;;;;;;;5.57;3.42;;;4.40;99.90;;;4.21;98.79;98555.56;172499;28;1195;-73
2021/11/20 00:06:59;;;;;;;6.44;2.94;;;4.50;99.90;;;4.16;98.38;98549.75;171920;28;1348;-74
2021/11/20 00:07:05;;;;;;;6.27;2.83;;;4.40;99.90;;;4.10;98.83;98545.75;172576;28;888;-72
2021/11/20 00:07:13;;;;;;;6.17;2.87;;;4.40;99.90;;;4.17;98.30;98552.31;172960;28;1366;-72
2021/11/20 00:07:20;;;;;;;5.67;2.70;;;4.40;99.90;;;4.13;98.43;98550.00;171787;28;1382;-73
2021/11/20 00:07:26;;;;;;;4.08;2.80;;;4.50;99.90;;;4.20;98.20;98560.03;171832;28;1053;-72
2021/11/20 00:07:33;;;;;;;4.95;2.90;;;4.40;99.90;;;4.09;97.82;98543.22;171224;28;1006;-72
2021/11/20 00:07:39;;;;;;;4.66;2.72;;;4.40;99.90;;;4.15;98.42;98548.03;172291;28;1241;-73
2021/11/20 00:07:46;;;;;;;5.97;2.80;;;4.40;99.90;;;4.20;97.77;98560.03;172456;28;2016;-72
2021/11/20 00:07:52;;;;;;;6.40;2.93;;;4.40;99.90;;;4.23;97.79;98565.16;172207;28;1385;-73
2021/11/20 00:08:00;;;;;;;6.90;3.08;;;4.40;99.90;;;4.18;97.99;98550.50;172535;28;966;-73
2021/11/20 00:08:07;;;;;;;6.13;2.97;;;4.40;99.90;;;4.23;98.38;98567.81;172531;28;1381;-71
2021/11/20 00:08:14;;;;;;;5.37;2.90;;;4.50;99.90;;;4.06;97.82;98541.63;172564;28;1113;-72
2021/11/20 00:08:22;;;;;;;4.62;2.76;;;4.40;99.90;;;4.15;98.21;98556.03;172472;28;1901;-72
2021/11/20 00:08:28;;;;;;;4.75;2.67;;;4.50;99.90;;;4.17;98.38;98557.63;172305;28;1056;-73
2021/11/20 00:08:34;;;;;;;4.70;2.80;;;4.40;99.90;;;4.23;98.44;98567.81;171810;28;1315;-72
2021/11/20 00:08:41;;;;;;;4.65;2.63;;;4.40;99.90;;;4.22;98.47;98563.44;172319;28;1093;-72
2021/11/20 00:08:47;;;;;;;5.06;2.82;;;4.40;99.90;;;4.23;98.35;98562.47;173349;28;974;-72
2021/11/20 00:08:54;;;;;;;5.50;2.87;;;4.40;99.90;;;4.27;98.20;98568.41;171836;28;1098;-72
2021/11/20 00:09:02;;;;;;;5.72;2.82;;;4.50;99.90;;;4.22;98.28;98558.13;171767;28;1536;-72
2021/11/20 00:09:12;;;;;;;6.77;3.10;;;4.50;99.90;;;4.21;98.78;98558.22;172373;28;1160;-73
2021/11/20 00:09:24;;;;;;;7.17;3.13;;;4.50;99.90;;;4.15;98.71;98548.91;171895;28;1218;-72
2021/11/20 00:09:31;;;;;;;6.60;2.97;;;4.50;99.90;;;4.23;98.83;98561.63;173221;28;1265;-73
2021/11/20 00:09:38;;;;;;;7.00;2.90;;;4.50;99.90;;;4.19;98.63;98554.84;172242;28;1034;-73
2021/11/20 00:09:46;;;;;;;6.40;2.78;;;4.50;99.90;;;4.11;98.60;98533.28;173217;28;1053;-72
2021/11/20 00:09:52;;;;;;;6.83;2.73;;;4.50;99.90;;;4.27;98.74;98561.25;171787;28;1279;-73
2021/11/20 00:09:58;;;;;;;5.93;2.70;;;4.50;99.90;;;4.25;98.88;98568.53;173194;28;914;-73
2021/11/20 00:10:09;;;;;;;5.85;2.78;;;4.50;99.90;;;4.30;98.13;98578.00;173779;28;1497;-72
2021/11/20 00:10:22;;;;;;;4.57;2.61;;;4.50;99.90;;;4.25;98.71;98552.53;172867;28;1341;-73
2021/11/20 00:10:31;;;;;;;3.99;2.54;;;4.50;99.90;;;4.22;98.85;98555.44;172267;28;1485;-72
2021/11/20 00:10:44;;;;;;;3.46;2.20;;;4.50;99.90;;;4.33;98.77;98567.06;170649;28;2329;-74
2021/11/20 00:11:00;;;;;;;3.55;2.13;;;4.50;99.90;;;4.35;98.81;98560.66;171711;28;1448;-71
2021/11/20 00:11:12;;;;;;;3.88;2.25;;;4.50;99.90;;;4.28;98.76;98554.13;172854;28;2727;-72
2021/11/20 00:11:25;;;;;;;4.49;2.67;;;4.50;99.90;;;4.36;98.87;98566.81;173125;28;1476;-73
2021/11/20 00:11:36;;;;;;;4.41;2.79;;;4.50;99.90;;;4.32;98.34;98560.03;171765;28;1521;-73
2021/11/20 00:11:46;;;;;;;3.91;2.74;;;4.50;99.90;;;4.26;98.34;98556.03;171784;28;1211;-72
2021/11/20 00:12:07;;;;;;;3.60;2.50;;;4.50;99.90;;;4.23;98.66;98540.31;173128;28;1349;-72
2021/11/20 00:12:24;;;;;;;4.15;2.69;;;4.50;99.90;;;4.26;98.21;98550.72;173746;28;1209;-72
2021/11/20 00:12:32;;;;;;;5.18;2.90;;;4.50;99.90;;;4.26;98.15;98553.38;173058;28;1473;-72
2021/11/20 00:12:41;;;;;;;6.30;2.76;;;4.50;99.90;;;4.32;97.84;98563.56;172379;28;1580;-72
2021/11/20 00:12:49;;;;;;;5.90;2.68;;;4.50;99.90;;;4.33;98.23;98564.41;171179;28;951;-72
2021/11/20 00:12:56;;;;;;;6.60;2.70;;;4.50;99.90;;;4.37;98.50;98571.19;171046;28;1302;-73
2021/11/20 00:13:07;;;;;;;7.18;2.50;;;4.50;99.90;;;4.34;98.18;98566.97;172453;28;1600;-72
2021/11/20 00:13:15;;;;;;;5.75;2.22;;;4.60;99.90;;;4.24;98.38;98547.34;172466;28;1485;-72
2021/11/20 00:13:23;;;;;;;5.24;2.18;;;4.50;99.90;;;4.30;98.40;98557.50;172993;28;1342;-72
2021/11/20 00:13:30;;;;;;;4.17;2.17;;;4.50;99.90;;;4.32;98.15;98557.38;172236;28;1454;-72
2021/11/20 00:13:37;;;;;;;3.80;2.42;;;4.50;99.90;;;4.33;97.92;98562.59;171454;28;1007;-73
2021/11/20 00:13:46;;;;;;;4.40;2.72;;;4.50;99.90;;;4.38;97.96;98571.06;172388;28;1624;-72
2021/11/20 00:13:54;;;;;;;4.30;2.80;;;4.60;99.90;;;4.34;98.21;98566.13;173813;28;1471;-72
2021/11/20 00:14:00;;;;;;;4.27;3.05;;;4.60;99.90;;;4.34;97.76;98568.78;172098;28;1673;-73
2021/11/20 00:14:10;;;;;;;4.17;2.97;;;4.60;99.90;;;4.41;98.14;98576.16;173858;28;1289;-72
2021/11/20 00:14:19;;;;;;;4.17;2.93;;;4.60;99.90;;;4.36;98.18;98566.81;174117;28;1719;-73
2021/11/20 00:14:26;;;;;;;5.76;2.73;;;4.60;99.90;;;4.37;97.71;98569.38;172403;28;1170;-72
2021/11/20 00:14:33;;;;;;;7.06;2.54;;;4.60;99.90;;;4.37;98.18;98569.38;171716;28;1429;-73
2021/11/20 00:14:39;;;;;;;7.63;2.80;;;4.60;99.90;;;4.31;97.70;98563.69;171969;28;1285;-72
2021/11/20 00:14:45;;;;;;;7.73;2.87;;;4.60;99.90;;;4.41;97.99;98576.16;171861;28;1414;-71
2021/11/20 00:14:53;;;;;;;7.27;2.90;;;4.60;99.90;;;4.37;97.72;98573.84;172504;28;1295;-72
2021/11/20 00:15:00;;;;;;;4.20;2.70;;;4.60;99.90;;;4.39;97.58;98571.94;172421;28;1436;-73
2021/11/20 00:15:12;;;;;;;4.08;2.70;;;4.60;99.90;;;4.32;97.90;98566.22;171559;28;1306;-73
2021/11/20 00:15:27;;;;;;;3.88;2.28;;;4.60;99.90;;;4.35;97.47;98570.47;171765;28;1480;-73
2021/11/20 00:15:38;;;;;;;4.96;2.44;;;4.60;99.90;;;4.33;97.44;98578.59;171033;28;1484;-72
2021/11/20 00:15:51;;;;;;;6.98;2.91;;;4.60;99.90;;;4.35;97.97;98575.81;172371;28;3008;-73
2021/11/20 00:16:04;;;;;;;8.21;3.16;;;4.60;99.90;;;4.33;97.62;98572.41;173148;28;1208;-73
2021/11/20 00:16:13;;;;;;;7.93;3.11;;;4.60;99.90;;;4.27;97.28;98563.06;170546;29;1193;-74
2021/11/20 00:16:23;;;;;;;6.57;2.80;;;4.60;99.90;;;4.32;97.51;98571.56;171811;28;1032;-72
2021/11/20 00:16:30;;;;;;;4.81;2.71;;;4.50;99.90;;;4.00;97.33;98523.47;172970;28;1879;-72
2021/11/20 00:16:41;;;;;;;4.16;2.60;;;4.60;99.90;;;4.33;97.89;98583.06;172383;28;1598;-73
2021/11/20 00:16:51;;;;;;;5.26;2.75;;;4.60;99.90;;;4.11;97.42;98542.13;171197;28;1414;-72
2021/11/20 00:17:01;;;;;;;5.90;2.88;;;4.50;99.90;;;4.24;97.88;98569.50;171760;28;1111;-72
2021/11/20 00:17:07;;;;;;;6.16;2.96;;;4.50;99.90;;;4.27;97.67;98573.75;171259;28;2217;-71
2021/11/20 00:17:14;;;;;;;5.33;2.83;;;4.50;99.90;;;4.28;97.58;98572.78;172630;28;1404;-73
2021/11/20 00:17:22;;;;;;;4.74;2.62;;;4.50;99.90;;;3.97;97.71;98523.72;171466;28;1445;-72
2021/11/20 00:17:28;;;;;;;4.15;2.53;;;4.50;99.90;;;4.32;97.93;98581.38;173223;28;950;-72
2021/11/20 00:17:34;;;;;;;4.53;2.63;;;4.50;99.90;;;4.21;97.81;98563.56;172907;28;1228;-73
2021/11/20 00:17:41;;;;;;;4.88;2.82;;;4.50;99.90;;;4.10;98.02;98544.91;173167;28;1414;-72
2021/11/20 00:17:48;;;;;;;4.87;3.00;;;4.50;99.90;;;4.33;98.27;98585.75;174200;28;1022;-72
2021/11/20 00:17:55;;;;;;;5.30;3.20;;;4.50;99.90;;;4.20;97.70;98554.72;173933;28;1005;-73
2021/11/20 00:18:03;;;;;;;5.50;3.60;;;4.50;99.90;;;4.23;98.12;98572.28;174035;28;912;-72
2021/11/20 00:18:10;;;;;;;4.90;3.37;;;4.50;99.90;;;4.23;98.16;98561.63;173216;28;994;-73
2021/11/20 00:18:19;;;;;;;5.64;3.44;;;4.50;99.90;;;4.26;98.25;98578.22;174348;28;1629;-72
2021/11/20 00:18:25;;;;;;;5.60;3.40;;;4.60;99.90;;;4.13;98.12;98553.53;173382;28;1039;-73
2021/11/20 00:18:33;;;;;;;4.70;3.05;;;4.50;99.90;;;4.22;97.79;98565.25;172952;28;1407;-73
2021/11/20 00:18:40;;;;;;;4.90;3.02;;;4.50;99.90;;;4.24;97.86;98568.66;171755;28;916;-73
2021/11/20 00:18:47;;;;;;;4.70;3.00;;;4.50;99.90;;;4.25;98.04;98573.00;171171;28;1014;-72
2021/11/20 00:18:54;;;;;;;5.10;2.90;;;4.50;99.90;;;4.15;98.17;98554.22;171987;28;1129;-72
2021/11/20 00:19:00;;;;;;;5.90;3.07;;;4.50;99.90;;;4.19;98.08;98566.38;171945;28;951;-72
2021/11/20 00:19:08;;;;;;;6.03;3.15;;;4.50;99.90;;;4.10;97.59;98540.41;172390;28;930;-72
2021/11/20 00:19:15;;;;;;;5.03;2.90;;;4.50;99.90;;;4.15;98.03;98559.56;174561;28;942;-73
2021/11/20 00:19:24;;;;;;;4.58;2.80;;;4.50;99.90;;;4.20;98.06;98573.38;172261;28;1343;-73
2021/11/20 00:19:32;;;;;;;4.23;2.54;;;4.50;99.90;;;4.16;98.17;98563.06;172438;28;1048;-72
2021/11/20 00:19:38;;;;;;;5.47;2.56;;;4.50;99.90;;;4.22;97.76;98571.44;172501;28;1461;-72
2021/11/20 00:19:45;;;;;;;5.75;2.65;;;4.50;99.90;;;4.30;97.54;98575.34;173886;28;1044;-72
2021/11/20 00:19:51;;;;;;;5.60;2.60;;;4.50;99.90;;;4.19;97.87;98560.19;173915;28;942;-72
2021/11/20 00:19:57;;;;;;;5.27;2.57;;;4.50;99.90;;;3.96;98.20;98519.34;173875;28;1076;-73
2021/11/20 00:20:10;;;;;;;4.03;2.35;;;4.50;99.90;;;4.26;98.01;98569.38;173655;28;1218;-71
2021/11/20 00:20:20;;;;;;;3.33;2.31;;;4.50;99.90;;;4.26;97.51;98562.22;173071;28;1223;-74
2021/11/20 00:20:30;;;;;;;4.14;2.46;;;4.50;99.90;;;4.29;97.93;98569.16;172677;28;1981;-72
2021/11/20 00:20:45;;;;;;;4.90;2.67;;;4.50;99.90;;;4.27;97.62;98571.06;172956;28;2564;-73
2021/11/20 00:21:03;;;;;;;4.61;2.59;;;4.50;99.90;;;4.17;97.76;98559.44;172208;28;1417;-72
2021/11/20 00:21:34;;;;;;;4.07;2.58;;;4.50;99.90;;;4.22;97.72;98565.25;172421;28;1602;-72
2021/11/20 00:21:49;;;;;;;4.34;2.64;;;4.50;99.90;;;4.14;97.58;98551.72;172561;28;1229;-71
2021/11/20 00:22:05;;;;;;;5.50;2.91;;;4.50;99.90;;;4.22;98.09;98581.25;173691;28;1592;-71
2021/11/20 00:22:35;;;;;;;4.43;2.63;;;4.40;99.90;;;4.21;97.95;98577.72;173846;28;1407;-72
2021/11/20 00:22:46;;;;;;;4.30;2.81;;;4.40;99.90;;;4.17;98.53;98568.28;174235;28;1221;-72
2021/11/20 00:22:54;;;;;;;5.04;3.10;;;4.50;99.90;;;4.17;98.14;98562.09;173007;28;1450;-73
2021/11/20 00:23:00;;;;;;;4.30;2.83;;;4.50;99.90;;;4.17;98.06;98565.63;171951;28;808;-71
2021/11/20 00:23:06;;;;;;;4.57;2.85;;;4.50;99.90;;;4.23;98.05;98572.28;172547;28;1046;-72
2021/11/20 00:23:19;;;;;;;3.50;2.13;;;4.40;99.90;;;4.22;98.20;98570.59;173105;28;1498;-72
2021/11/20 00:23:38;;;;;;;4.09;2.33;;;4.40;99.90;;;4.17;98.41;98560.28;173129;28;1370;-72
2021/11/20 00:23:56;;;;;;;6.50;2.75;;;4.40;99.90;;;4.19;98.49;98562.84;172702;28;1771;-73
2021/11/20 00:24:14;;;;;;;8.61;3.22;;;4.50;99.90;;;4.15;97.91;98556.91;172444;28;1233;-71
2021/11/20 00:24:42;;;;;;;6.11;2.79;;;4.50;99.90;;;4.20;98.10;98557.38;172172;28;1585;-73
2021/11/20 00:24:54;;;;;;;4.75;2.67;;;4.50;99.90;;;4.22;97.58;98563.44;171168;28;1189;-73
2021/11/20 00:25:29;;;;;;;2.99;2.24;;;4.50;99.90;;;4.23;97.64;98557.16;171215;28;1193;-72
2021/11/20 00:25:50;;;;;;;5.30;2.39;;;4.50;99.90;;;4.24;97.78;98558.84;172392;28;1574;-73
2021/11/20 00:25:58;;;;;;;8.94;2.58;;;4.50;99.90;;;4.25;98.02;98565.84;174360;28;1470;-73
2021/11/20 00:26:15;;;;;;;7.24;2.73;;;4.50;99.90;;;4.27;98.28;98563.94;173212;28;1019;-72
2021/11/20 00:26:29;;;;;;;5.32;2.79;;;4.50;99.90;;;4.25;97.70;98555.19;172172;28;1403;-72
2021/11/20 00:26:35;;;;;;;5.01;2.91;;;4.50;99.90;;;4.36;98.17;98573.00;173669;28;1332;-71
2021/11/20 00:26:42;;;;;;;4.86;2.96;;;4.60;99.90;;;4.33;98.38;98567.06;172529;28;1265;-72
2021/11/20 00:26:48;;;;;;;4.75;2.72;;;4.50;99.90;;;4.31;97.77;98569.00;172513;28;959;-72
2021/11/20 00:26:58;;;;;;;4.76;2.86;;;4.50;99.90;;;4.31;98.09;98569.00;172318;28;913;-73
2021/11/20 00:27:11;;;;;;;5.14;2.99;;;4.50;99.90;;;4.32;98.03;98568.03;172356;28;1024;-73
2021/11/20 00:27:37;;;;;;;5.04;2.89;;;4.60;99.90;;;4.23;98.48;98562.47;170698;28;1660;-72
2021/11/20 00:27:43;;;;;;;4.65;2.69;;;4.50;99.90;;;4.26;97.98;98562.22;171613;28;1336;-73
2021/11/20 00:27:53;;;;;;;4.03;2.13;;;4.50;99.90;;;4.27;97.68;98573.75;172469;28;1322;-73
2021/11/20 00:28:00;;;;;;;4.80;2.22;;;4.50;99.90;;;4.29;98.25;98574.47;172944;28;2899;-72
2021/11/20 00:28:07;;;;;;;5.80;2.40;;;4.50;99.90;;;4.09;98.29;98543.22;172398;28;1768;-72
2021/11/20 00:28:19;;;;;;;5.30;2.40;;;4.50;99.90;;;4.21;98.40;98572.41;174391;28;934;-72
2021/11/20 00:29:21;;;;;;;5.66;2.38;;;4.50;99.90;;;4.26;98.07;98572.88;171679;28;1405;-73
2021/11/20 00:29:25;;;;;;;6.57;2.50;;;4.50;99.90;;;4.22;98.06;98559.94;171653;28;1668;-72
2021/11/20 00:29:44;;;;;;;5.27;2.32;;;4.50;99.90;;;4.17;98.34;98554.13;172078;28;2036;-73
2021/11/20 00:30:23;;;;;;;4.36;2.63;;;4.50;99.90;;;4.26;98.16;98572.88;172505;28;1185;-73
2021/11/20 00:30:41;;;;;;;6.88;2.63;;;4.50;99.90;;;4.25;98.32;98570.34;175146;28;1234;-73
2021/11/20 00:30:54;;;;;;;5.18;2.26;;;4.50;99.90;;;4.20;98.03;98562.72;172493;28;1381;-73
2021/11/20 00:31:06;;;;;;;3.24;2.15;;;4.50;99.90;;;4.24;97.88;98572.19;173879;28;1197;-72
2021/11/20 00:31:16;;;;;;;4.14;2.28;;;4.40;99.90;;;4.16;97.93;98553.25;172527;28;1200;-71
2021/11/20 00:31:22;;;;;;;4.69;2.56;;;4.50;99.90;;;4.23;98.10;98566.97;173099;28;1135;-72
2021/11/20 00:31:40;;;;;;;5.03;3.07;;;4.50;99.90;;;4.21;97.45;98564.41;173066;28;1421;-73
2021/11/20 00:32:00;;;;;;;4.81;3.17;;;4.50;99.90;;;4.18;97.85;98564.66;172409;28;1489;-72
2021/11/20 00:32:13;;;;;;;3.61;2.61;;;4.40;99.90;;;4.22;97.51;98568.78;172569;28;1216;-71
2021/11/20 00:32:21;;;;;;;3.85;2.58;;;4.40;99.90;;;4.19;98.08;98568.19;172409;28;1412;-72
2021/11/20 00:32:49;;;;;;;3.75;2.67;;;4.40;99.90;;;4.10;97.39;98548.41;172969;28;1149;-72
2021/11/20 00:33:06;;;;;;;4.85;2.64;;;4.40;99.90;;;4.19;97.55;98569.03;174493;28;1587;-72
2021/11/20 00:33:12;;;;;;;4.64;2.26;;;4.40;99.90;;;4.18;98.01;98562.00;172475;28;1357;-73
2021/11/20 00:33:19;;;;;;;3.30;1.95;;;4.40;99.90;;;4.23;97.59;98573.16;172560;28;1314;-73
2021/11/20 00:33:31;;;;;;;3.34;2.20;;;4.40;99.90;;;4.16;97.67;98561.25;171778;28;1593;-73
2021/11/20 00:33:38;;;;;;;3.96;2.48;;;4.50;99.90;;;3.97;97.06;98526.38;171822;28;1222;-72
2021/11/20 00:33:45;;;;;;;4.70;2.48;;;4.40;99.90;;;4.15;97.50;98564.03;173607;28;1435;-71
2021/11/20 00:33:51;;;;;;;4.00;2.33;;;4.40;99.90;;;4.12;97.36;98551.81;172500;28;880;-72
2021/11/20 00:33:57;;;;;;;3.83;2.20;;;4.40;99.90;;;4.20;97.96;98561.84;172244;28;1195;-72
2021/11/20 00:34:04;;;;;;;3.55;2.17;;;4.40;99.90;;;4.19;97.64;98563.69;173184;28;924;-72
2021/11/20 00:34:18;;;;;;;3.57;2.30;;;4.40;99.90;;;4.24;97.73;98563.34;172068;28;1414;-72
2021/11/20 00:34:31;;;;;;;4.50;2.40;;;4.40;99.90;;;4.18;97.13;98562.00;171627;28;1213;-73
2021/11/20 00:34:41;;;;;;;5.20;2.47;;;4.40;99.90;;;4.08;97.62;98539.72;171633;28;1397;-72
2021/11/20 00:34:48;;;;;;;4.46;2.42;;;4.50;99.90;;;4.17;97.23;98557.63;171672;28;1629;-73
2021/11/20 00:35:05;;;;;;;4.18;2.58;;;4.50;99.90;;;4.20;97.60;98561.84;172463;28;1288;-74
2021/11/20 00:35:18;;;;;;;4.40;2.49;;;4.40;99.90;;;4.15;97.63;98558.72;172462;28;1237;-73
2021/11/20 00:35:33;;;;;;;4.82;2.40;;;4.50;99.90;;;4.21;97.68;98568.88;171918;28;1381;-72
2021/11/20 00:35:43;;;;;;;4.71;2.54;;;4.50;99.90;;;4.15;97.75;98562.22;172579;28;1221;-74
2021/11/20 00:35:53;;;;;;;3.94;2.29;;;4.50;99.90;;;4.22;97.81;98571.44;172513;28;1052;-73
2021/11/20 00:36:03;;;;;;;4.06;2.36;;;4.40;99.90;;;4.18;97.38;98559.34;174476;28;1278;-72
2021/11/20 00:36:11;;;;;;;4.19;2.39;;;4.50;99.90;;;4.11;97.83;98551.94;171639;28;1212;-73
2021/11/20 00:36:19;;;;;;;5.18;2.55;;;4.40;99.90;;;4.13;98.20;98547.34;172556;28;934;-72
2021/11/20 00:36:25;;;;;;;5.17;2.71;;;4.40;99.90;;;4.19;97.61;98563.69;171314;28;1204;-72
2021/11/20 00:36:31;;;;;;;5.30;2.67;;;4.40;99.90;;;4.18;97.88;98554.00;171253;28;913;-72
2021/11/20 00:36:37;;;;;;;5.97;2.85;;;4.40;99.90;;;4.23;98.17;98557.16;170969;28;1650;-74
2021/11/20 00:36:44;;;;;;;5.65;2.80;;;4.50;99.90;;;4.15;98.31;98543.56;171891;28;1030;-73
2021/11/20 00:36:52;;;;;;;4.54;2.46;;;4.50;99.90;;;4.21;98.21;98551.09;172135;28;1355;-73
2021/11/20 00:37:00;;;;;;;4.35;2.50;;;4.50;99.90;;;4.22;97.90;98554.59;171787;28;1556;-72
2021/11/20 00:37:06;;;;;;;4.06;2.46;;;4.50;99.90;;;4.26;98.26;98559.56;171438;28;1559;-72
2021/11/20 00:37:14;;;;;;;3.43;2.27;;;4.50;99.90;;;4.29;97.95;98566.47;174520;28;1026;-73
2021/11/20 00:37:20;;;;;;;3.90;2.22;;;4.50;99.90;;;4.21;98.59;98548.41;173578;28;1191;-72
2021/11/20 00:37:26;;;;;;;3.97;2.20;;;4.50;99.90;;;4.28;97.66;98565.63;172473;28;1031;-72
2021/11/20 00:37:33;;;;;;;4.14;2.12;;;4.50;99.90;;;4.26;97.89;98566.72;172818;28;1440;-72
2021/11/20 00:37:40;;;;;;;4.36;2.22;;;4.50;99.90;;;4.27;97.84;98568.41;173021;28;1374;-73
2021/11/20 00:37:47;;;;;;;3.23;2.30;;;4.50;99.90;;;4.30;97.87;98564.66;173173;28;1536;-73
2021/11/20 00:37:53;;;;;;;3.44;2.28;;;4.50;99.90;;;4.19;98.07;98545.06;173690;28;1063;-72
2021/11/20 00:37:59;;;;;;;3.38;2.30;;;4.50;99.90;;;4.23;98.01;98551.81;173512;28;1191;-72
2021/11/20 00:38:09;;;;;;;3.60;2.40;;;4.50;99.90;;;4.22;98.13;98550.13;172574;28;1363;-73
2021/11/20 00:38:15;;;;;;;3.30;2.11;;;4.50;99.90;;;4.25;98.32;98552.53;171113;28;1358;-73
2021/11/20 00:38:23;;;;;;;3.35;2.13;;;4.50;99.90;;;4.29;98.15;98561.16;173012;28;1382;-72
2021/11/20 00:38:31;;;;;;;4.03;2.40;;;4.50;99.90;;;4.35;98.19;98558.00;172389;28;1270;-72
2021/11/20 00:38:39;;;;;;;3.78;2.42;;;4.50;99.90;;;4.01;98.52;98503.00;171641;28;2591;-72
2021/11/20 00:38:45;;;;;;;3.96;2.50;;;4.50;99.90;;;4.35;98.08;98566.00;172384;28;1458;-73
2021/11/20 00:38:52;;;;;;;3.93;2.63;;;4.50;99.90;;;4.33;98.30;98567.06;172236;28;1264;-72
2021/11/20 00:38:58;;;;;;;3.12;2.32;;;4.50;99.90;;;4.33;97.87;98561.75;172528;28;951;-71
2021/11/20 00:39:11;;;;;;;2.75;2.13;;;4.60;99.90;;;4.31;98.11;98555.69;170945;28;1064;-72
2021/11/20 00:39:22;;;;;;;2.38;1.86;;;4.60;99.90;;;4.38;97.79;98567.56;172198;28;1715;-73
2021/11/20 00:39:32;;;;;;;2.41;1.80;;;4.60;99.90;;;4.31;98.07;98556.53;172894;28;1715;-73
2021/11/20 00:39:39;;;;;;;4.13;2.43;;;4.60;99.90;;;4.31;97.74;98558.34;171904;28;1067;-72
2021/11/20 00:39:45;;;;;;;4.00;2.40;;;4.50;99.90;;;4.34;98.21;98564.31;172413;28;2123;-72
2021/11/20 00:39:51;;;;;;;4.18;2.38;;;4.60;99.90;;;4.36;97.75;98566.81;173887;28;1544;-72
2021/11/20 00:39:57;;;;;;;4.45;2.42;;;4.60;99.90;;;4.29;98.10;98550.50;172161;28;918;-71
2021/11/20 00:40:13;;;;;;;4.80;2.53;;;4.60;99.90;;;4.32;98.02;98558.22;172791;28;1649;-71
2021/11/20 00:40:29;;;;;;;4.24;2.26;;;4.50;99.90;;;4.33;97.70;98556.41;171813;28;1507;-71
2021/11/20 00:40:49;;;;;;;4.76;2.61;;;4.60;99.90;;;4.27;98.03;98552.41;170808;28;2146;-71
2021/11/20 00:41:14;;;;;;;3.56;2.19;;;4.50;99.90;;;4.32;97.92;98566.22;173792;28;1427;-72
2021/11/20 00:41:28;;;;;;;3.58;1.96;;;4.60;99.90;;;4.24;97.97;98563.34;174442;28;1203;-72
2021/11/20 00:41:35;;;;;;;5.65;2.33;;;4.60;99.90;;;4.27;98.23;98563.94;173203;28;1204;-72
2021/11/20 00:41:41;;;;;;;5.48;2.22;;;4.50;99.90;;;4.21;97.78;98544.91;171904;28;1405;-72
2021/11/20 00:41:48;;;;;;;5.10;2.08;;;4.60;99.90;;;4.25;97.80;98563.19;171746;28;1332;-73
2021/11/20 00:41:54;;;;;;;4.13;2.13;;;4.60;99.90;;;4.30;98.37;98570.00;171847;28;1012;-72
2021/11/20 00:42:02;;;;;;;3.60;2.02;;;4.50;99.90;;;4.23;98.40;98558.97;171267;28;892;-72
2021/11/20 00:42:11;;;;;;;3.98;2.08;;;4.50;99.90;;;4.19;98.00;98555.72;172306;28;1231;-73
2021/11/20 00:42:18;;;;;;;3.93;2.27;;;4.50;99.90;;;4.27;98.13;98569.25;171876;28;907;-71
2021/11/20 00:42:24;;;;;;;3.80;2.30;;;4.50;99.90;;;4.26;98.50;98562.22;173222;28;1295;-71
2021/11/20 00:42:30;;;;;;;3.38;2.20;;;4.50;99.90;;;4.11;97.81;98538.59;172518;28;1318;-72
2021/11/20 00:42:36;;;;;;;2.73;2.10;;;4.50;99.90;;;4.28;98.64;98576.28;171586;28;1216;-72
2021/11/20 00:42:43;;;;;;;3.80;2.30;;;4.50;99.90;;;4.20;97.92;98560.03;173078;28;1649;-72
2021/11/20 00:42:49;;;;;;;3.76;2.16;;;4.50;99.90;;;4.30;98.15;98580.66;173653;28;1019;-72
2021/11/20 00:42:55;;;;;;;3.95;2.03;;;4.50;99.90;;;4.28;98.61;98578.97;173856;28;1436;-73
2021/11/20 00:43:02;;;;;;;4.18;2.10;;;4.50;99.90;;;4.12;98.27;98551.81;173534;28;1122;-73
2021/11/20 00:43:08;;;;;;;3.90;2.17;;;4.50;99.90;;;4.25;98.47;98571.19;173811;28;1489;-73
2021/11/20 00:43:17;;;;;;;3.02;1.96;;;4.50;99.90;;;4.21;98.44;98563.56;173347;28;1318;-73
2021/11/20 00:43:25;;;;;;;3.67;2.41;;;4.50;99.90;;;4.18;97.90;98564.66;172467;28;1231;-72
2021/11/20 00:43:31;;;;;;;3.70;2.64;;;4.50;99.90;;;4.10;98.30;98563.56;171594;28;1473;-72
2021/11/20 00:43:39;;;;;;;4.63;2.73;;;4.50;99.90;;;4.12;98.35;98562.47;172582;28;919;-72
2021/11/20 00:43:49;;;;;;;5.18;2.92;;;4.50;99.90;;;4.23;98.14;98582.94;172252;28;1181;-72
2021/11/20 00:43:55;;;;;;;4.46;2.53;;;4.50;99.90;;;4.16;98.32;98566.59;172917;28;1315;-73